Time;durP1;ratioP1;P1;durP2;ratioP2;P2;SDS_P1;SDS_P2;PMS_P1;PMS_P2;Temp;Humidity;BMP_temperature;BMP_pressure;BME280_temperature;BME280_humidity;BME280_pressure;Samples;Min_cycle;Max_cycle;Signal;HPM_P1;HPM_P2
2022/10/03 00:00:50;;;;;;;4.85;1.85;;;11.30;99.90;;;;;;5090057;28;20082;-42
2022/10/03 00:03:53;;;;;;;5.82;1.75;;;11.30;99.90;;;;;;5087883;28;20514;-41
2022/10/03 00:06:50;;;;;;;9.90;1.77;;;11.30;99.90;;;;;;5094752;28;20028;-38
2022/10/03 00:09:41;;;;;;;2.47;1.13;;;11.30;99.90;;;;;;5014038;28;20046;-40
2022/10/03 00:12:17;;;;;;;4.18;1.38;;;11.30;99.90;;;;;;5090870;28;20024;-41
2022/10/03 00:14:48;;;;;;;5.60;1.00;;;11.20;99.90;;;;;;5080026;28;20498;-35
2022/10/03 00:17:17;;;;;;;8.98;1.95;;;11.20;99.90;;;;;;5093051;28;20414;-38
2022/10/03 00:19:57;;;;;;;7.72;1.58;;;11.10;99.90;;;;;;5075013;28;20040;-41
2022/10/03 00:22:46;;;;;;;7.93;1.67;;;11.00;99.90;;;;;;5089046;28;20028;-36
2022/10/03 00:25:29;;;;;;;6.90;1.55;;;11.00;99.90;;;;;;5090581;28;20043;-39
2022/10/03 00:28:11;;;;;;;2.80;1.50;;;11.00;99.90;;;;;;5087616;28;20048;-41
2022/10/03 00:31:12;;;;;;;3.50;1.30;;;11.00;99.90;;;;;;5079374;28;20071;-38
2022/10/03 00:34:00;;;;;;;7.28;1.40;;;11.00;99.90;;;;;;5067831;28;20100;-38
2022/10/03 00:36:26;;;;;;;4.38;1.20;;;11.00;99.90;;;;;;5088304;28;20035;-40
2022/10/03 00:39:10;;;;;;;2.95;1.30;;;10.90;99.90;;;;;;5089023;28;20024;-45
2022/10/03 00:42:03;;;;;;;5.53;1.80;;;10.90;99.90;;;;;;5069377;28;20032;-42
2022/10/03 00:44:47;;;;;;;5.85;1.20;;;10.90;99.90;;;;;;5094130;28;20024;-41
2022/10/03 00:47:30;;;;;;;3.42;1.63;;;10.90;99.90;;;;;;5091335;28;20468;-42
2022/10/03 00:50:14;;;;;;;6.65;1.55;;;10.90;99.90;;;;;;5076012;28;20472;-43
2022/10/03 00:53:12;;;;;;;9.77;1.30;;;10.80;99.90;;;;;;5088147;28;20020;-49
2022/10/03 00:56:06;;;;;;;9.50;1.65;;;10.90;99.90;;;;;;5060218;28;20035;-46
2022/10/03 00:59:02;;;;;;;6.72;1.58;;;10.90;99.90;;;;;;5079263;28;20055;-42
2022/10/03 01:01:27;;;;;;;8.18;1.40;;;10.90;99.90;;;;;;5090080;28;20031;-37
2022/10/03 01:04:11;;;;;;;5.88;1.42;;;10.90;99.90;;;;;;5093399;28;20039;-40
2022/10/03 01:06:46;;;;;;;7.45;1.75;;;10.90;99.90;;;;;;5093742;28;20024;-42
2022/10/03 01:09:28;;;;;;;3.67;1.23;;;10.80;99.90;;;;;;5092636;28;20036;-36
2022/10/03 01:12:00;;;;;;;6.50;1.25;;;10.80;99.90;;;;;;5089210;28;20035;-37
2022/10/03 01:15:03;;;;;;;6.75;1.98;;;10.80;99.90;;;;;;5061708;28;20507;-38
2022/10/03 01:17:59;;;;;;;2.03;0.93;;;10.80;99.90;;;;;;5093409;28;20365;-37
2022/10/03 01:20:48;;;;;;;3.75;1.08;;;10.80;99.90;;;;;;5088674;28;20024;-38
2022/10/03 01:23:24;;;;;;;4.35;1.50;;;10.70;99.90;;;;;;5069870;28;20592;-44
2022/10/03 01:26:00;;;;;;;5.82;1.17;;;10.70;99.90;;;;;;5090927;28;20089;-43
2022/10/03 01:31:31;;;;;;;5.65;1.48;;;10.60;99.90;;;;;;5081563;28;20523;-39
2022/10/03 01:34:11;;;;;;;2.85;0.93;;;10.60;99.90;;;;;;5076915;28;20035;-42
2022/10/03 01:37:14;;;;;;;7.82;1.38;;;10.60;99.90;;;;;;5079663;28;20400;-38
2022/10/03 01:40:12;;;;;;;8.60;1.15;;;10.60;99.90;;;;;;5085244;28;20048;-38
2022/10/03 01:42:43;;;;;;;4.15;0.95;;;10.60;99.90;;;;;;5045890;28;20047;-38
2022/10/03 01:45:35;;;;;;;5.03;1.38;;;10.50;99.90;;;;;;5082580;28;20586;-35
2022/10/03 01:48:28;;;;;;;6.50;1.00;;;10.50;99.90;;;;;;5067104;28;20028;-38
2022/10/03 01:51:15;;;;;;;5.55;1.40;;;10.50;99.90;;;;;;5087164;28;20039;-35
2022/10/03 01:53:56;;;;;;;2.37;0.83;;;10.50;99.90;;;;;;5087366;28;20027;-43
2022/10/03 01:57:15;;;;;;;7.90;1.00;;;10.50;99.90;;;;;;5091924;28;20032;-42
2022/10/03 02:00:00;;;;;;;7.55;1.52;;;10.50;99.90;;;;;;5030397;28;20029;-44
2022/10/03 02:02:58;;;;;;;4.75;0.93;;;10.50;99.90;;;;;;5081173;28;20551;-41
2022/10/03 02:05:35;;;;;;;4.35;1.23;;;10.40;99.90;;;;;;5092029;28;20436;-41
2022/10/03 02:08:27;;;;;;;6.65;1.60;;;10.40;99.90;;;;;;5091643;28;20028;-42
2022/10/03 02:11:07;;;;;;;2.00;0.95;;;10.40;99.90;;;;;;5079460;28;20077;-40
2022/10/03 02:14:04;;;;;;;1.58;1.20;;;10.40;99.90;;;;;;5091781;28;20114;-41
2022/10/03 02:16:42;;;;;;;5.00;2.05;;;10.40;99.90;;;;;;5078434;28;20024;-41
2022/10/03 02:19:29;;;;;;;2.47;0.95;;;10.40;99.90;;;;;;5092482;28;20032;-41
2022/10/03 02:21:57;;;;;;;5.18;1.05;;;10.30;99.90;;;;;;5091425;28;20028;-42
2022/10/03 02:24:35;;;;;;;7.00;1.27;;;10.30;99.90;;;;;;5091943;28;20047;-42
2022/10/03 02:27:20;;;;;;;;;;;10.30;99.90;;;;;;5087912;28;20108;-44
2022/10/03 02:29:45;;;;;;;8.35;1.50;;;10.30;99.90;;;;;;5079956;28;20368;-41
2022/10/03 02:32:45;;;;;;;6.50;1.10;;;10.30;99.90;;;;;;5090720;28;20088;-43
2022/10/03 02:35:48;;;;;;;3.30;1.00;;;10.30;99.90;;;;;;5089168;28;20095;-37
2022/10/03 02:38:16;;;;;;;3.70;0.90;;;10.20;99.90;;;;;;5087663;28;20024;-41
2022/10/03 02:41:03;;;;;;;3.20;0.95;;;10.20;99.90;;;;;;5080625;28;20036;-46
2022/10/03 02:44:17;;;;;;;4.82;1.13;;;10.20;99.90;;;;;;5076132;28;20033;-40
2022/10/03 02:47:09;;;;;;;3.17;0.90;;;10.20;99.90;;;;;;5061582;28;20407;-41
2022/10/03 02:49:40;;;;;;;7.68;1.60;;;10.20;99.90;;;;;;5085907;28;20035;-45
2022/10/03 02:52:40;;;;;;;6.15;1.05;;;10.20;99.90;;;;;;5086690;28;20027;-41
2022/10/03 02:55:45;;;;;;;2.03;1.13;;;10.20;99.90;;;;;;5084918;28;20519;-43
2022/10/03 02:58:35;;;;;;;3.13;0.85;;;10.20;99.90;;;;;;5083679;28;20511;-41
2022/10/03 03:01:31;;;;;;;7.60;1.30;;;10.20;99.90;;;;;;5082738;28;20024;-40
2022/10/03 03:03:56;;;;;;;2.72;0.60;;;10.20;99.90;;;;;;5091872;28;20023;-35
2022/10/03 03:06:40;;;;;;;2.40;0.85;;;10.20;99.90;;;;;;5090175;28;20529;-38
2022/10/03 03:09:11;;;;;;;3.28;1.15;;;10.20;99.90;;;;;;5084748;28;20603;-38
2022/10/03 03:11:58;;;;;;;4.50;1.27;;;10.20;99.90;;;;;;5076766;28;20112;-42
2022/10/03 03:15:15;;;;;;;5.05;1.48;;;10.20;99.90;;;;;;5060437;28;20047;-43
2022/10/03 03:17:56;;;;;;;7.25;1.15;;;10.20;99.90;;;;;;5030969;28;20089;-41
2022/10/03 03:20:40;;;;;;;3.13;1.15;;;10.20;99.90;;;;;;5087843;28;20476;-38
2022/10/03 03:23:23;;;;;;;1.58;1.27;;;10.20;99.90;;;;;;5089664;28;20020;-45
2022/10/03 03:26:01;;;;;;;3.63;1.00;;;10.20;99.90;;;;;;5091665;28;20036;-41
2022/10/03 03:28:51;;;;;;;7.43;1.05;;;10.20;99.90;;;;;;5079958;28;20480;-42
2022/10/03 03:31:28;;;;;;;1.95;1.02;;;10.10;99.90;;;;;;5082370;28;20488;-41
2022/10/03 03:34:08;;;;;;;2.27;1.20;;;10.10;99.90;;;;;;5091685;28;20016;-41
2022/10/03 03:36:50;;;;;;;3.55;0.82;;;10.10;99.90;;;;;;5089947;28;20028;-41
2022/10/03 03:39:42;;;;;;;2.80;0.85;;;10.10;99.90;;;;;;5086970;28;20406;-38
2022/10/03 03:42:21;;;;;;;2.03;1.05;;;10.00;99.90;;;;;;5081753;28;20179;-43
2022/10/03 03:45:07;;;;;;;4.28;1.55;;;10.00;99.90;;;;;;5079238;28;20124;-43
2022/10/03 03:48:00;;;;;;;4.35;1.25;;;10.00;99.90;;;;;;5094329;28;20020;-42
2022/10/03 03:50:44;;;;;;;3.03;0.98;;;10.00;99.90;;;;;;5094756;28;20490;-41
2022/10/03 03:53:55;;;;;;;1.15;1.00;;;10.00;99.90;;;;;;5082055;28;20410;-42
2022/10/03 03:56:41;;;;;;;5.53;1.30;;;10.00;99.90;;;;;;5019670;28;20390;-41
2022/10/03 03:59:16;;;;;;;5.18;1.20;;;9.90;99.90;;;;;;5077330;28;20033;-38
2022/10/03 04:01:48;;;;;;;4.38;1.25;;;9.90;99.90;;;;;;5082821;28;20032;-42
2022/10/03 04:04:34;;;;;;;2.95;1.25;;;9.90;99.90;;;;;;5094132;28;20032;-42
2022/10/03 04:07:02;;;;;;;4.38;1.40;;;9.80;99.90;;;;;;5086589;28;20024;-44
2022/10/03 04:10:05;;;;;;;4.25;1.27;;;9.80;99.90;;;;;;5095828;28;20036;-43
2022/10/03 04:13:03;;;;;;;5.72;1.60;;;9.80;99.90;;;;;;5093823;28;20487;-43
2022/10/03 04:15:38;;;;;;;3.65;0.98;;;9.80;99.90;;;;;;5087341;28;20028;-44
2022/10/03 04:21:20;;;;;;;5.25;1.70;;;9.90;99.90;;;;;;5083232;28;20065;-42
2022/10/03 04:23:52;;;;;;;2.83;1.20;;;9.90;99.90;;;;;;5094677;28;20028;-39
2022/10/03 04:26:39;;;;;;;1.98;1.42;;;9.90;99.90;;;;;;5093641;28;20039;-42
2022/10/03 04:29:10;;;;;;;3.80;1.25;;;9.80;99.90;;;;;;5094386;28;20032;-35
2022/10/03 04:31:37;;;;;;;5.18;1.20;;;9.80;99.90;;;;;;5090136;28;20507;-34
2022/10/03 04:34:22;;;;;;;7.63;1.55;;;9.80;99.90;;;;;;5094324;28;20099;-39
2022/10/03 04:37:07;;;;;;;4.32;1.35;;;9.90;99.90;;;;;;5094314;28;20085;-35
2022/10/03 04:40:13;;;;;;;5.72;1.25;;;9.90;99.90;;;;;;5082976;28;20051;-44
2022/10/03 04:43:10;;;;;;;5.57;1.43;;;9.90;99.90;;;;;;5075716;28;20119;-42
2022/10/03 04:45:59;;;;;;;5.88;1.60;;;9.90;99.90;;;;;;5089082;28;20844;-48
2022/10/03 04:48:41;;;;;;;2.92;1.73;;;9.90;99.90;;;;;;5086689;28;20375;-42
2022/10/03 04:51:35;;;;;;;2.80;1.33;;;10.00;99.90;;;;;;5088155;28;20464;-40
2022/10/03 04:54:30;;;;;;;9.00;1.58;;;10.00;99.90;;;;;;5077947;28;20024;-43
2022/10/03 04:57:14;;;;;;;1.85;0.93;;;9.90;99.90;;;;;;5084392;28;20116;-40
2022/10/03 04:59:43;;;;;;;4.70;1.60;;;9.90;99.90;;;;;;5090029;28;20484;-41
2022/10/03 05:02:13;;;;;;;4.30;1.63;;;9.90;99.90;;;;;;5088636;28;20027;-41
2022/10/03 05:05:11;;;;;;;2.40;1.10;;;9.90;99.90;;;;;;5092443;28;20415;-39
2022/10/03 05:08:04;;;;;;;6.22;1.85;;;9.90;99.90;;;;;;5075271;28;20464;-39
2022/10/03 05:10:46;;;;;;;6.88;1.40;;;9.90;99.90;;;;;;5077731;28;20044;-38
2022/10/03 05:13:37;;;;;;;4.30;2.55;;;9.80;99.90;;;;;;5086438;28;20027;-42
2022/10/03 05:16:32;;;;;;;6.13;1.75;;;9.80;99.90;;;;;;5080432;28;20024;-38
2022/10/03 05:19:17;;;;;;;4.07;1.67;;;9.80;99.90;;;;;;5088380;28;20024;-44
2022/10/03 05:22:03;;;;;;;1.45;1.10;;;9.80;99.90;;;;;;5093779;28;20435;-43
2022/10/03 05:25:07;;;;;;;6.78;1.42;;;9.80;99.90;;;;;;5086199;28;20028;-41
2022/10/03 05:27:50;;;;;;;2.65;1.50;;;9.80;99.90;;;;;;5054130;28;20048;-43
2022/10/03 05:30:32;;;;;;;4.05;1.52;;;9.80;99.90;;;;;;5086232;28;20032;-45
2022/10/03 05:33:27;;;;;;;6.88;1.65;;;9.80;99.90;;;;;;5082116;28;20024;-42
2022/10/03 05:36:38;;;;;;;6.65;1.73;;;9.70;99.90;;;;;;5089594;28;20020;-43
2022/10/03 05:39:31;;;;;;;3.90;1.40;;;9.70;99.90;;;;;;5010424;28;20038;-39
2022/10/03 05:42:14;;;;;;;4.85;1.48;;;9.70;99.90;;;;;;5085206;28;20501;-43
2022/10/03 05:44:45;;;;;;;2.90;1.40;;;9.70;99.90;;;;;;5083489;28;20020;-42
2022/10/03 05:47:44;;;;;;;4.45;1.70;;;9.80;99.90;;;;;;5088223;28;20051;-43
2022/10/03 05:50:15;;;;;;;1.85;1.58;;;9.80;99.90;;;;;;5079027;28;20028;-42
2022/10/03 05:53:31;;;;;;;4.07;1.63;;;9.80;99.90;;;;;;5090466;28;20027;-42
2022/10/03 05:56:02;;;;;;;1.77;1.40;;;9.80;99.90;;;;;;5014477;28;20478;-42
2022/10/03 05:59:08;;;;;;;5.40;1.77;;;9.90;99.90;;;;;;5023726;28;20112;-41
2022/10/03 06:01:37;;;;;;;5.75;2.10;;;9.90;99.90;;;;;;5035407;28;20047;-41
2022/10/03 06:04:53;;;;;;;3.58;1.88;;;10.00;99.90;;;;;;5085624;28;20052;-39
2022/10/03 06:07:27;;;;;;;5.32;1.35;;;10.10;99.90;;;;;;5040773;28;20488;-45
2022/10/03 06:10:19;;;;;;;9.30;1.58;;;10.20;99.90;;;;;;5085484;28;20042;-41
2022/10/03 06:12:59;;;;;;;4.97;2.03;;;10.20;99.90;;;;;;5079268;28;20055;-44
2022/10/03 06:15:53;;;;;;;6.20;1.70;;;10.30;99.90;;;;;;5089699;28;20039;-46
2022/10/03 06:18:31;;;;;;;4.47;1.52;;;10.40;99.90;;;;;;5075264;28;20086;-42
2022/10/03 06:21:15;;;;;;;;;;;10.50;99.90;;;;;;5091207;28;20050;-42
2022/10/03 06:23:57;;;;;;;5.38;1.65;;;10.60;99.90;;;;;;5093228;28;19904;-41
2022/10/03 06:26:50;;;;;;;5.25;1.98;;;10.70;99.90;;;;;;5091084;28;20039;-42
2022/10/03 06:29:57;;;;;;;5.50;1.73;;;10.80;99.90;;;;;;5072970;28;20564;-42
2022/10/03 06:32:50;;;;;;;5.35;1.83;;;10.90;99.90;;;;;;5078865;28;20050;-41
2022/10/03 06:35:46;;;;;;;6.68;1.90;;;10.90;99.90;;;;;;5082237;28;20501;-41
2022/10/03 06:38:12;;;;;;;10.50;1.95;;;11.00;99.90;;;;;;5074134;28;20020;-43
2022/10/03 06:41:11;;;;;;;9.18;2.40;;;11.10;99.90;;;;;;5085961;28;20384;-42
2022/10/03 06:44:07;;;;;;;5.85;1.88;;;11.10;99.90;;;;;;5087404;28;20479;-41
2022/10/03 06:46:44;;;;;;;6.72;1.77;;;11.20;99.90;;;;;;5083316;28;20025;-51
2022/10/03 06:49:28;;;;;;;5.50;1.75;;;11.30;99.90;;;;;;5084771;28;20099;-46
2022/10/03 06:52:11;;;;;;;7.15;2.15;;;11.40;99.90;;;;;;5089655;28;20103;-42
2022/10/03 06:54:55;;;;;;;4.72;1.70;;;11.50;99.90;;;;;;5092807;28;20031;-41
2022/10/03 06:57:42;;;;;;;5.22;1.65;;;11.60;99.90;;;;;;5090389;28;20020;-43
2022/10/03 07:03:42;;;;;;;9.52;1.85;;;11.70;99.90;;;;;;5076973;28;20085;-49
2022/10/03 07:06:36;;;;;;;8.07;1.73;;;11.80;99.90;;;;;;5059376;28;20527;-39
2022/10/03 07:09:26;;;;;;;4.82;1.85;;;11.80;99.90;;;;;;5089529;28;20043;-36
2022/10/03 07:12:05;;;;;;;9.57;1.70;;;11.90;99.90;;;;;;5080769;28;20472;-38
2022/10/03 07:15:03;;;;;;;3.15;1.20;;;12.00;99.90;;;;;;5091686;28;20514;-39
2022/10/03 07:17:47;;;;;;;1.52;1.05;;;12.10;99.90;;;;;;5079604;28;20484;-39
2022/10/03 07:20:50;;;;;;;6.63;2.00;;;12.20;99.90;;;;;;5055592;28;20082;-39
2022/10/03 07:23:40;;;;;;;3.97;1.58;;;12.30;99.90;;;;;;5081810;28;20487;-41
2022/10/03 07:26:27;;;;;;;6.25;2.38;;;12.40;99.90;;;;;;5089003;28;20032;-37
2022/10/03 07:29:16;;;;;;;6.63;2.10;;;12.40;99.90;;;;;;5083174;28;20402;-38
2022/10/03 07:31:58;;;;;;;5.68;1.98;;;12.50;99.90;;;;;;5087547;28;20530;-35
2022/10/03 07:34:35;;;;;;;2.63;1.50;;;12.60;99.90;;;;;;5089828;28;20567;-39
2022/10/03 07:40:51;;;;;;;5.78;2.63;;;12.70;99.90;;;;;;5080572;28;20092;-41
2022/10/03 07:43:20;;;;;;;5.13;1.63;;;12.80;99.90;;;;;;5069997;28;20035;-37
2022/10/03 07:46:34;;;;;;;6.55;2.03;;;12.90;99.90;;;;;;5090361;28;20028;-39
2022/10/03 07:49:52;;;;;;;7.60;1.40;;;13.00;99.90;;;;;;5082388;28;20503;-40
2022/10/03 07:52:56;;;;;;;5.30;1.80;;;13.10;99.90;;;;;;5007252;28;20049;-40
2022/10/03 07:55:38;;;;;;;8.55;1.65;;;13.20;99.90;;;;;;5091986;28;20476;-36
2022/10/03 07:58:20;;;;;;;2.38;1.20;;;13.20;99.90;;;;;;5077865;28;20051;-40
2022/10/03 08:01:09;;;;;;;3.20;1.58;;;13.20;99.90;;;;;;5090772;28;20030;-37
2022/10/03 08:03:53;;;;;;;3.50;1.20;;;13.30;99.90;;;;;;5042907;28;20037;-39
2022/10/03 08:06:51;;;;;;;5.70;1.42;;;13.30;99.90;;;;;;5077591;28;20028;-37
2022/10/03 08:09:38;;;;;;;2.65;1.20;;;13.40;99.90;;;;;;5057826;28;20547;-41
2022/10/03 08:12:30;;;;;;;7.00;1.75;;;13.40;99.90;;;;;;5093078;28;20059;-43
2022/10/03 08:15:05;;;;;;;2.30;0.85;;;13.50;99.90;;;;;;5072353;28;20065;-38
2022/10/03 08:17:36;;;;;;;7.20;1.45;;;13.60;99.90;;;;;;5063737;28;20036;-37
2022/10/03 08:20:33;;;;;;;4.05;1.27;;;13.60;99.90;;;;;;5085601;28;20107;-35
2022/10/03 08:23:42;;;;;;;5.00;1.85;;;13.70;99.90;;;;;;5080336;28;20051;-42
2022/10/03 08:26:38;;;;;;;4.40;1.63;;;13.80;99.90;;;;;;5078122;28;20109;-39
2022/10/03 08:29:33;;;;;;;1.98;1.05;;;13.80;99.90;;;;;;5094645;28;20495;-36
2022/10/03 08:32:41;;;;;;;5.40;1.40;;;13.90;99.90;;;;;;5085478;28;20032;-36
2022/10/03 08:35:28;;;;;;;4.93;1.00;;;14.00;99.90;;;;;;5082748;28;20036;-41
2022/10/03 08:38:14;;;;;;;2.05;1.08;;;14.10;99.90;;;;;;5081124;28;20158;-36
2022/10/03 08:40:52;;;;;;;6.65;2.38;;;14.20;99.90;;;;;;5091608;28;20073;-36
2022/10/03 08:43:20;;;;;;;10.63;1.30;;;14.30;99.90;;;;;;5084024;28;20071;-43
2022/10/03 08:45:58;;;;;;;10.27;1.50;;;14.40;99.90;;;;;;5082085;28;20032;-43
2022/10/03 08:48:45;;;;;;;5.35;1.48;;;14.50;99.90;;;;;;5081125;28;20036;-41
2022/10/03 08:51:25;;;;;;;5.03;1.67;;;14.50;99.90;;;;;;5074835;28;20036;-48
2022/10/03 08:54:01;;;;;;;3.53;1.63;;;14.60;99.90;;;;;;5075745;28;20119;-41
2022/10/03 08:56:50;;;;;;;4.13;1.60;;;14.60;99.90;;;;;;5094687;28;20028;-47
2022/10/03 08:59:31;;;;;;;6.63;1.75;;;14.80;99.90;;;;;;5092387;28;20467;-45
2022/10/03 09:02:21;;;;;;;4.18;1.60;;;14.90;99.90;;;;;;5093277;28;20450;-43
2022/10/03 09:05:03;;;;;;;2.58;1.23;;;15.00;99.90;;;;;;5085639;28;20033;-47
2022/10/03 09:08:07;;;;;;;8.48;1.65;;;15.10;99.90;;;;;;5082450;28;20025;-43
2022/10/03 09:11:02;;;;;;;8.88;1.25;;;15.20;99.90;;;;;;5090477;28;20310;-42
2022/10/03 09:13:37;;;;;;;9.20;1.73;;;15.30;99.90;;;;;;5088684;28;20028;-46
2022/10/03 09:16:44;;;;;;;3.40;1.25;;;15.40;99.90;;;;;;5092157;28;20028;-48
2022/10/03 09:19:10;;;;;;;4.78;1.20;;;15.40;99.90;;;;;;5045207;28;20507;-48
2022/10/03 09:21:54;;;;;;;5.20;1.27;;;15.40;99.90;;;;;;5074541;28;20106;-44
2022/10/03 09:24:43;;;;;;;2.22;1.35;;;15.50;99.90;;;;;;5074384;28;20383;-48
2022/10/03 09:27:21;;;;;;;3.58;1.55;;;15.50;99.90;;;;;;5080090;28;20036;-41
2022/10/03 09:30:22;;;;;;;3.47;1.20;;;15.60;99.90;;;;;;5065956;28;20024;-43
2022/10/03 09:33:07;;;;;;;4.55;1.13;;;15.70;99.90;;;;;;5083824;28;20073;-41
2022/10/03 09:35:45;;;;;;;2.58;1.20;;;15.70;99.90;;;;;;5082771;28;20024;-47
2022/10/03 09:38:34;;;;;;;3.72;1.23;;;15.80;99.90;;;;;;5082839;28;20099;-46
2022/10/03 09:41:18;;;;;;;7.07;2.08;;;15.90;99.90;;;;;;5094148;28;20028;-43
2022/10/03 09:43:53;;;;;;;9.05;1.70;;;15.90;99.90;;;;;;5081773;28;20043;-43
2022/10/03 09:46:37;;;;;;;5.28;2.03;;;15.90;99.90;;;;;;5091062;28;20381;-43
2022/10/03 09:49:22;;;;;;;4.03;1.73;;;16.10;99.90;;;;;;5093884;28;20035;-44
2022/10/03 09:52:11;;;;;;;4.20;1.52;;;16.10;99.90;;;;;;5083743;28;20041;-44
2022/10/03 09:55:11;;;;;;;6.72;1.45;;;16.10;99.90;;;;;;5091361;28;20027;-42
2022/10/03 09:58:22;;;;;;;3.13;1.20;;;16.10;99.90;;;;;;5050204;28;20037;-44
2022/10/03 10:01:17;;;;;;;5.60;1.88;;;16.10;99.90;;;;;;5087252;28;20042;-42
2022/10/03 10:04:12;;;;;;;9.30;1.50;;;16.20;99.90;;;;;;5091661;28;20031;-43
2022/10/03 10:06:59;;;;;;;5.72;1.42;;;16.20;99.90;;;;;;5092803;28;20480;-45
2022/10/03 10:09:43;;;;;;;5.47;1.08;;;16.20;99.90;;;;;;5092967;28;20032;-45
2022/10/03 10:12:46;;;;;;;3.22;1.13;;;16.30;99.90;;;;;;5093008;28;20480;-42
2022/10/03 10:15:21;;;;;;;4.07;1.27;;;16.40;99.90;;;;;;5091355;28;20070;-45
2022/10/03 10:18:05;;;;;;;9.13;1.13;;;16.50;99.90;;;;;;5086210;28;20502;-43
2022/10/03 10:21:01;;;;;;;8.40;1.13;;;16.60;99.90;;;;;;5073386;28;20472;-42
2022/10/03 10:23:49;;;;;;;6.80;1.33;;;16.70;99.90;;;;;;5091496;28;20107;-41
2022/10/03 10:26:36;;;;;;;1.58;0.77;;;16.80;99.90;;;;;;5082488;28;20068;-43
2022/10/03 10:29:27;;;;;;;5.63;1.10;;;16.90;99.90;;;;;;5077623;28;20028;-42
2022/10/03 10:32:13;;;;;;;2.58;0.80;;;17.00;99.90;;;;;;5088856;28;20487;-48
2022/10/03 10:34:47;;;;;;;6.70;1.20;;;17.10;99.90;;;;;;5092057;28;20499;-41
2022/10/03 10:37:37;;;;;;;5.57;1.23;;;17.10;99.90;;;;;;5085349;28;20104;-42
2022/10/03 10:40:40;;;;;;;10.23;1.65;;;17.20;99.90;;;;;;5084769;28;20028;-42
2022/10/03 10:43:12;;;;;;;5.38;0.98;;;17.30;99.90;;;;;;5090979;28;20028;-43
2022/10/03 10:46:03;;;;;;;2.85;0.88;;;17.30;99.90;;;;;;5092293;28;20519;-42
2022/10/03 10:48:59;;;;;;;3.20;1.00;;;17.40;99.90;;;;;;5088144;28;20399;-44
2022/10/03 10:51:44;;;;;;;2.92;0.90;;;17.60;99.90;;;;;;5088855;28;20105;-43
2022/10/03 10:54:54;;;;;;;5.70;1.23;;;17.80;99.90;;;;;;5076851;28;20040;-43
2022/10/03 10:57:44;;;;;;;4.70;1.00;;;17.90;99.90;;;;;;5085624;28;20036;-42
2022/10/03 11:00:25;;;;;;;3.88;0.82;;;17.90;99.90;;;;;;5091759;28;20020;-43
2022/10/03 11:03:00;;;;;;;2.35;0.90;;;18.10;99.90;;;;;;5087626;28;20028;-46
2022/10/03 11:06:01;;;;;;;6.43;1.00;;;18.20;99.90;;;;;;5083830;28;20480;-49
2022/10/03 11:08:33;;;;;;;9.13;1.48;;;18.30;99.90;;;;;;5091545;28;20111;-36
2022/10/03 11:11:23;;;;;;;3.58;0.93;;;18.30;99.90;;;;;;5078113;28;20027;-41
2022/10/03 11:14:27;;;;;;;9.73;1.30;;;18.30;99.90;;;;;;5079219;28;20035;-41
2022/10/03 11:16:58;;;;;;;3.40;0.85;;;18.30;99.90;;;;;;5089353;28;20028;-46
2022/10/03 11:19:44;;;;;;;6.47;0.98;;;18.30;99.90;;;;;;5060104;28;20028;-42
2022/10/03 11:22:51;;;;;;;4.25;0.90;;;18.40;99.90;;;;;;5083100;28;20479;-45
2022/10/03 11:25:36;;;;;;;;;;;18.50;99.90;;;;;;5055773;28;20044;-44
2022/10/03 11:28:07;;;;;;;6.53;1.15;;;18.60;99.90;;;;;;5091318;28;19966;-41
2022/10/03 11:30:53;;;;;;;9.60;0.93;;;18.70;99.90;;;;;;5089940;28;20066;-44
2022/10/03 11:36:47;;;;;;;6.35;0.77;;;18.90;99.90;;;;;;5091956;28;20051;-43
2022/10/03 11:39:40;;;;;;;4.20;0.57;;;18.80;99.90;;;;;;5086015;28;20408;-42
2022/10/03 11:42:18;;;;;;;7.40;1.35;;;18.80;99.90;;;;;;5072616;28;20545;-44
2022/10/03 11:44:57;;;;;;;3.47;0.80;;;18.90;99.90;;;;;;5077318;28;20032;-42
2022/10/03 11:47:50;;;;;;;5.90;1.48;;;19.00;99.90;;;;;;5074036;28;20561;-39
2022/10/03 11:50:19;;;;;;;3.17;1.08;;;19.00;99.90;;;;;;5085991;28;20477;-42
2022/10/03 11:53:18;;;;;;;4.10;1.20;;;18.80;99.90;;;;;;5084767;28;20056;-41
2022/10/03 11:55:50;;;;;;;3.35;0.73;;;18.80;99.90;;;;;;5072626;28;20453;-39
2022/10/03 11:58:44;;;;;;;4.50;1.23;;;18.90;99.90;;;;;;5079168;28;20098;-42
2022/10/03 12:01:22;;;;;;;9.70;0.98;;;18.90;99.90;;;;;;5089671;28;20024;-39
2022/10/03 12:04:15;;;;;;;7.68;0.90;;;19.00;99.90;;;;;;5082150;28;20024;-33
2022/10/03 12:10:02;;;;;;;4.10;1.10;;;19.10;99.90;;;;;;5084189;28;20066;-41
2022/10/03 12:12:34;;;;;;;9.52;1.13;;;19.10;99.90;;;;;;5086885;28;20464;-36
2022/10/03 12:15:17;;;;;;;3.80;1.02;;;19.10;99.90;;;;;;5074967;28;20028;-38
2022/10/03 12:18:06;;;;;;;6.05;1.23;;;19.10;99.90;;;;;;5076680;28;20060;-35
2022/10/03 12:20:55;;;;;;;5.05;1.20;;;19.00;99.90;;;;;;5061085;28;20040;-37
2022/10/03 12:23:35;;;;;;;5.40;1.40;;;19.10;99.90;;;;;;5082812;28;20032;-38
2022/10/03 12:26:03;;;;;;;6.82;1.13;;;19.10;99.90;;;;;;5090597;28;20150;-36
2022/10/03 12:28:33;;;;;;;;;;;19.00;99.90;;;;;;5095891;28;20032;-37
2022/10/03 12:31:01;;;;;;;7.15;0.80;;;18.90;99.90;;;;;;5094591;28;20002;-33
2022/10/03 12:33:43;;;;;;;;;;;18.80;99.90;;;;;;5094089;28;20043;-36
2022/10/03 12:36:32;;;;;;;6.28;1.27;;;18.70;99.90;;;;;;5086072;28;19915;-38
2022/10/03 12:39:10;;;;;;;3.05;1.05;;;18.70;99.90;;;;;;5094588;28;20032;-36
2022/10/03 12:42:02;;;;;;;12.55;1.38;;;18.50;99.90;;;;;;5079543;28;20496;-38
2022/10/03 12:44:33;;;;;;;3.90;0.90;;;18.40;99.90;;;;;;5089791;28;20042;-43
2022/10/03 12:47:08;;;;;;;4.60;1.20;;;18.40;99.90;;;;;;5075253;28;20048;-49
2022/10/03 12:49:50;;;;;;;2.85;1.02;;;18.30;99.90;;;;;;5086364;28;20020;-49
2022/10/03 12:52:48;;;;;;;4.30;1.58;;;18.30;99.90;;;;;;5079534;28;20538;-42
2022/10/03 12:55:35;;;;;;;6.72;0.98;;;18.30;99.90;;;;;;5075026;28;20012;-43
2022/10/03 12:58:09;;;;;;;7.17;1.50;;;18.30;99.90;;;;;;5093374;28;20024;-45
2022/10/03 13:00:50;;;;;;;5.47;1.65;;;18.30;99.90;;;;;;5079451;28;20028;-45
2022/10/03 13:03:37;;;;;;;8.10;1.40;;;18.30;99.90;;;;;;5089744;28;20047;-44
2022/10/03 13:06:40;;;;;;;11.25;1.70;;;18.30;99.90;;;;;;5091560;28;20039;-50
2022/10/03 13:09:31;;;;;;;5.30;1.27;;;18.30;99.90;;;;;;5087224;28;20036;-41
2022/10/03 13:12:10;;;;;;;5.60;1.08;;;18.30;99.90;;;;;;5093846;28;20563;-45
2022/10/03 13:15:03;;;;;;;5.63;1.00;;;18.30;99.90;;;;;;5078043;28;20461;-43
2022/10/03 13:17:53;;;;;;;5.47;1.10;;;18.40;99.90;;;;;;5092391;28;20028;-49
2022/10/03 13:20:41;;;;;;;12.50;1.73;;;18.30;99.90;;;;;;5090519;28;20032;-41
2022/10/03 13:23:31;;;;;;;6.32;1.52;;;18.30;99.90;;;;;;5088710;28;20023;-41
2022/10/03 13:26:27;;;;;;;11.48;1.30;;;18.30;99.90;;;;;;5080362;28;20028;-44
2022/10/03 13:29:16;;;;;;;8.95;2.33;;;18.30;99.90;;;;;;5090607;28;20043;-43
2022/10/03 13:32:36;;;;;;;12.00;1.40;;;18.20;99.90;;;;;;5084152;28;20078;-45
2022/10/03 13:38:42;;;;;;;13.50;2.00;;;17.90;99.90;;;;;;5076773;28;20512;-42
2022/10/03 13:41:35;;;;;;;4.75;1.25;;;17.90;99.90;;;;;;5065214;28;20036;-49
2022/10/03 13:44:11;;;;;;;5.32;1.17;;;17.80;99.90;;;;;;5074573;28;20102;-40
2022/10/03 13:46:52;;;;;;;4.00;0.95;;;17.80;99.90;;;;;;5077460;28;20055;-42
2022/10/03 13:49:35;;;;;;;6.32;0.82;;;17.80;99.90;;;;;;5089066;28;20082;-43
2022/10/03 13:52:39;;;;;;;5.80;1.30;;;17.80;99.90;;;;;;5080514;28;20024;-41
2022/10/03 13:55:28;;;;;;;7.72;2.20;;;17.70;99.90;;;;;;5074943;28;20544;-52
2022/10/03 13:58:21;;;;;;;6.82;1.48;;;17.60;99.90;;;;;;5089904;28;20040;-41
2022/10/03 14:01:03;;;;;;;8.02;1.55;;;17.70;99.90;;;;;;5086858;28;20418;-41
2022/10/03 14:03:51;;;;;;;6.35;0.90;;;17.70;99.90;;;;;;5078749;28;20540;-42
2022/10/03 14:06:50;;;;;;;10.95;0.88;;;17.70;99.90;;;;;;5067794;28;20388;-38
2022/10/03 14:09:18;;;;;;;2.17;0.85;;;17.80;99.90;;;;;;5085222;28;20032;-39
2022/10/03 14:12:10;;;;;;;5.88;0.82;;;17.70;99.90;;;;;;5063912;28;20431;-51
2022/10/03 14:14:51;;;;;;;5.63;1.35;;;17.70;99.90;;;;;;5082262;28;20645;-40
2022/10/03 14:17:35;;;;;;;8.60;1.80;;;17.60;99.90;;;;;;5089955;28;20024;-41
2022/10/03 14:20:28;;;;;;;6.03;0.70;;;17.60;99.90;;;;;;5087501;28;20514;-40
2022/10/03 14:23:29;;;;;;;3.13;1.13;;;17.60;99.90;;;;;;5086250;28;20025;-38
2022/10/03 14:26:14;;;;;;;6.75;0.73;;;17.60;99.90;;;;;;5081010;28;20507;-41
2022/10/03 14:28:50;;;;;;;7.53;1.67;;;17.60;99.90;;;;;;5086787;28;20363;-56
2022/10/03 14:31:19;;;;;;;5.35;0.80;;;17.60;99.90;;;;;;5085679;28;20437;-47
2022/10/03 14:34:01;;;;;;;14.25;1.42;;;17.60;99.90;;;;;;5080157;28;20032;-42
2022/10/03 14:36:26;;;;;;;4.88;1.20;;;17.70;99.90;;;;;;5078373;28;20487;-37
2022/10/03 14:39:12;;;;;;;9.20;2.65;;;17.60;99.90;;;;;;5086506;28;20024;-43
2022/10/03 14:41:45;;;;;;;9.43;1.45;;;17.60;99.90;;;;;;5088868;28;20036;-42
2022/10/03 14:44:46;;;;;;;5.60;0.93;;;17.60;99.90;;;;;;5077721;28;20032;-44
2022/10/03 14:47:17;;;;;;;7.70;1.20;;;17.60;99.90;;;;;;5033701;28;20043;-45
2022/10/03 14:49:55;;;;;;;5.32;1.23;;;17.50;99.90;;;;;;5084164;28;20029;-47